Time;durP1;ratioP1;P1;durP2;ratioP2;P2;SDS_P1;SDS_P2;PMS_P1;PMS_P2;Temp;Humidity;BMP_temperature;BMP_pressure;BME280_temperature;BME280_humidity;BME280_pressure;Samples;Min_cycle;Max_cycle;Signal;HPM_P1;HPM_P2
2021/11/01 00:00:34;;;;;;;;;;;;;;;11.41;75.63;98331.88;4993705;28;20046;-61
2021/11/01 00:03:10;;;;;;;9.30;3.40;;;;;;;11.40;75.88;98337.97;4976215;28;20345;-63
2021/11/01 00:05:44;;;;;;;;;;;;;;;11.36;75.71;98331.13;4977529;28;20104;-62
2021/11/01 00:08:18;;;;;;;7.40;3.55;;;;;;;11.37;75.78;98326.78;4976876;28;19921;-63
2021/11/01 00:10:57;;;;;;;13.48;2.63;;;;;;;11.36;75.87;98327.66;4976643;28;20125;-63
2021/11/01 00:13:31;;;;;;;8.82;2.95;;;;;;;11.35;75.75;98320.75;4976257;28;20088;-63
2021/11/01 00:16:05;;;;;;;17.67;3.95;;;;;;;11.33;75.76;98318.19;4994528;28;20042;-63
2021/11/01 00:18:42;;;;;;;10.15;2.85;;;;;;;11.35;75.51;98316.44;4977046;28;20041;-63
2021/11/01 00:21:21;;;;;;;5.30;2.35;;;;;;;11.34;75.71;98311.25;4993089;28;20040;-63
2021/11/01 00:23:52;;;;;;;7.75;2.40;;;;;;;11.34;75.66;98322.50;4992959;28;20066;-63
2021/11/01 00:26:29;;;;;;;9.48;3.63;;;;;;;11.32;75.58;98323.38;4976518;28;20517;-63
2021/11/01 00:29:03;;;;;;;5.95;2.90;;;;;;;11.32;75.84;98324.25;4976866;28;20054;-62
2021/11/01 00:31:34;;;;;;;10.35;2.88;;;;;;;11.32;75.61;98318.19;4976756;28;20046;-63
2021/11/01 00:34:09;;;;;;;6.78;2.42;;;;;;;11.32;75.65;98324.25;4992752;28;20041;-63
2021/11/01 00:36:43;;;;;;;10.20;2.70;;;;;;;11.32;75.46;98313.88;4977282;28;20041;-63
2021/11/01 00:39:17;;;;;;;;;;;;;;;11.30;75.70;98318.22;4976574;28;20049;-63
2021/11/01 00:41:53;;;;;;;5.00;2.60;;;;;;;11.30;75.77;98306.97;4994273;28;19920;-63
2021/11/01 00:44:27;;;;;;;7.70;2.53;;;;;;;11.29;75.69;98313.91;4975947;28;20030;-63
2021/11/01 00:47:01;;;;;;;8.48;3.28;;;;;;;11.30;75.68;98312.16;4977129;28;20141;-63
2021/11/01 00:49:35;;;;;;;6.63;2.90;;;;;;;11.30;75.56;98310.44;4992619;28;20497;-63
2021/11/01 00:52:12;;;;;;;9.55;3.08;;;;;;;11.27;75.81;98313.97;4992824;28;20049;-63
2021/11/01 00:54:43;;;;;;;17.00;2.83;;;;;;;11.30;75.70;98305.25;4993876;28;20113;-63
2021/11/01 00:57:20;;;;;;;8.23;2.85;;;;;;;11.30;75.37;98309.56;4992693;28;20053;-63
2021/11/01 00:59:59;;;;;;;8.75;3.55;;;;;;;11.30;75.71;98314.75;4976926;28;20062;-63
2021/11/01 01:02:33;;;;;;;12.70;3.15;;;;;;;11.30;75.72;98314.75;4992494;28;20078;-63
2021/11/01 01:05:07;;;;;;;6.53;3.10;;;;;;;11.29;75.51;98316.50;4976392;28;20520;-63
2021/11/01 01:07:38;;;;;;;9.90;2.65;;;;;;;11.27;75.50;98313.97;4992327;28;20486;-63
2021/11/01 01:10:13;;;;;;;8.63;2.72;;;;;;;11.27;75.47;98318.28;4977210;28;20038;-63
2021/11/01 01:12:49;;;;;;;10.15;2.88;;;;;;;11.27;75.82;98321.75;4992583;28;20044;-63
2021/11/01 01:15:35;;;;;;;11.27;3.30;;;;;;;11.25;75.79;98313.13;4979799;28;20038;-63
2021/11/01 01:18:13;;;;;;;15.70;3.17;;;;;;;11.23;75.92;98303.63;4979940;28;20042;-63
2021/11/01 01:20:53;;;;;;;9.98;2.45;;;;;;;11.25;75.98;98305.34;4980356;28;20125;-63
2021/11/01 01:23:25;;;;;;;12.13;2.80;;;;;;;11.25;75.51;98307.06;4980173;28;20482;-63
2021/11/01 01:26:05;;;;;;;6.38;2.70;;;;;;;11.23;76.04;98304.50;4979864;28;20390;-63
2021/11/01 01:28:39;;;;;;;7.88;3.33;;;;;;;11.25;75.88;98294.97;4980020;28;20112;-63
2021/11/01 01:31:10;;;;;;;;;;;;;;;11.22;75.71;98296.72;4980621;28;20039;-63
2021/11/01 01:33:47;;;;;;;3.47;2.40;;;;;;;11.19;75.67;98292.44;4980200;28;20361;-63
2021/11/01 01:36:24;;;;;;;7.65;2.88;;;;;;;11.20;75.51;98295.91;4979691;28;20049;-63
2021/11/01 01:38:53;;;;;;;8.23;2.67;;;;;;;11.19;75.59;98289.84;4979513;28;20049;-63
2021/11/01 01:41:30;;;;;;;9.80;2.88;;;;;;;11.20;75.72;98288.97;4980255;28;20053;-63
2021/11/01 01:44:04;;;;;;;13.43;3.05;;;;;;;11.20;75.65;98295.91;4980005;28;20038;-63
2021/11/01 01:46:36;;;;;;;;;;;;;;;11.18;75.51;98280.34;4979948;28;20046;-63
2021/11/01 01:49:12;;;;;;;6.78;3.15;;;;;;;11.18;75.65;98288.13;4979774;28;20285;-62
2021/11/01 01:51:47;;;;;;;;;;;;;;;11.16;75.36;98287.31;4996521;28;20116;-64
2021/11/01 01:54:24;;;;;;;13.90;3.65;;;;;;;11.16;75.97;98278.69;4995430;28;19913;-61
2021/11/01 01:56:58;;;;;;;12.00;3.70;;;;;;;11.15;75.90;98285.59;4995001;28;20046;-61
2021/11/01 01:59:32;;;;;;;8.20;2.88;;;;;;;11.15;75.83;98290.78;4979267;28;20497;-61
2021/11/01 02:02:06;;;;;;;8.52;3.85;;;;;;;11.14;75.68;98285.63;4996500;28;20061;-62
2021/11/01 02:04:42;;;;;;;10.85;2.47;;;;;;;11.14;75.84;98288.22;4996742;28;20116;-61
2021/11/01 02:07:51;;;;;;;7.43;2.72;;;;;;;11.16;75.63;98278.69;4979156;28;20073;-62
2021/11/01 02:10:22;;;;;;;5.78;3.05;;;;;;;11.13;75.87;98277.00;4962847;28;20133;-62
2021/11/01 02:13:24;;;;;;;14.10;3.50;;;;;;;11.14;75.71;98283.03;4962652;28;20050;-62
2021/11/01 02:15:53;;;;;;;12.20;3.80;;;;;;;11.15;75.43;98279.56;4963055;28;20043;-61
2021/11/01 02:18:21;;;;;;;12.93;3.00;;;;;;;11.16;75.87;98276.09;4978743;28;20038;-61
2021/11/01 02:21:02;;;;;;;6.15;2.28;;;;;;;11.14;75.82;98265.72;4962625;28;20046;-61
2021/11/01 02:23:40;;;;;;;9.68;3.40;;;;;;;11.15;75.74;98266.59;4963154;28;20104;-61
2021/11/01 02:26:14;;;;;;;10.60;2.95;;;;;;;11.14;75.64;98251.91;4961716;28;20064;-62
2021/11/01 02:28:48;;;;;;;12.30;3.78;;;;;;;11.14;75.79;98259.69;4979212;28;20042;-64
2021/11/01 02:31:21;;;;;;;;;;;;;;;11.10;75.84;98259.72;4979222;28;20041;-64
2021/11/01 02:33:59;;;;;;;13.50;3.15;;;;;;;11.09;75.41;98262.34;4979040;28;19920;-63
2021/11/01 02:36:35;;;;;;;9.35;2.75;;;;;;;11.08;75.89;98260.63;4963142;28;20042;-64
2021/11/01 02:39:07;;;;;;;7.57;3.15;;;;;;;11.07;75.61;98257.19;4962419;28;20038;-63
2021/11/01 02:41:43;;;;;;;9.43;3.27;;;;;;;11.06;75.31;98252.88;4962497;28;20112;-63
2021/11/01 02:44:22;;;;;;;11.43;3.25;;;;;;;11.06;75.52;98255.47;4962694;28;20039;-63
2021/11/01 02:46:56;;;;;;;13.93;3.25;;;;;;;11.06;75.44;98254.63;4978862;28;20120;-63
2021/11/01 02:49:32;;;;;;;;;;;;;;;11.02;75.51;98245.16;4978817;28;20041;-63
2021/11/01 02:52:04;;;;;;;8.00;3.33;;;;;;;11.01;75.54;98246.03;4962136;28;20477;-64
2021/11/01 02:54:34;;;;;;;9.75;3.60;;;;;;;11.01;75.52;98241.72;4962153;28;20116;-63
2021/11/01 02:57:13;;;;;;;10.70;3.72;;;;;;;11.01;75.41;98246.03;4995686;28;20046;-63
2021/11/01 02:59:50;;;;;;;12.52;3.47;;;;;;;11.00;75.44;98244.31;4962221;28;20520;-63
2021/11/01 03:02:22;;;;;;;11.15;3.50;;;;;;;11.00;75.24;98237.44;4967787;28;20054;-62
2021/11/01 03:04:56;;;;;;;12.25;3.85;;;;;;;10.98;75.47;98251.28;5010661;28;20035;-64
2021/11/01 03:07:26;;;;;;;15.10;3.47;;;;;;;10.96;75.29;98247.00;4994352;28;20038;-63
2021/11/01 03:10:02;;;;;;;10.18;3.20;;;;;;;10.94;75.09;98240.09;4994006;28;20402;-63
2021/11/01 03:12:37;;;;;;;7.93;2.55;;;;;;;10.92;75.22;98236.66;4994046;28;20042;-63
2021/11/01 03:15:11;;;;;;;14.55;4.90;;;;;;;10.90;75.21;98252.25;4977752;28;20116;-63
2021/11/01 03:17:48;;;;;;;11.95;3.30;;;;;;;10.89;74.97;98232.38;4978438;28;20153;-63
2021/11/01 03:20:28;;;;;;;15.15;3.58;;;;;;;10.87;75.00;98239.31;4995104;28;20030;-63
2021/11/01 03:23:22;;;;;;;12.65;3.30;;;;;;;10.87;74.82;98236.72;4994088;28;20042;-63
2021/11/01 03:26:02;;;;;;;12.35;3.75;;;;;;;10.85;74.98;98240.22;4993871;28;20057;-63
2021/11/01 03:28:32;;;;;;;10.52;3.28;;;;;;;10.85;74.85;98248.00;4977918;28;20038;-63
2021/11/01 03:31:11;;;;;;;10.45;3.72;;;;;;;10.84;74.84;98246.28;4977814;28;20081;-63
2021/11/01 03:33:43;;;;;;;7.82;2.63;;;;;;;10.82;75.27;98252.34;4993988;28;20628;-63
2021/11/01 03:36:21;;;;;;;8.48;3.03;;;;;;;10.82;75.17;98254.94;4977379;28;20042;-63
2021/11/01 03:38:56;;;;;;;15.20;3.85;;;;;;;10.82;75.02;98256.69;4993780;28;20120;-63
2021/11/01 03:41:32;;;;;;;8.95;2.63;;;;;;;10.82;74.63;98259.28;4977976;28;20042;-63
2021/11/01 03:44:08;;;;;;;11.10;3.13;;;;;;;10.82;74.94;98262.72;4994830;28;20482;-64
2021/11/01 03:46:49;;;;;;;10.60;3.53;;;;;;;10.79;74.86;98249.78;4993007;28;20036;-63
2021/11/01 03:49:18;;;;;;;10.73;3.15;;;;;;;10.77;75.01;98256.72;4977873;28;20046;-63
2021/11/01 03:54:34;;;;;;;12.68;3.00;;;;;;;10.75;74.87;98257.63;5009904;28;20089;-61
2021/11/01 03:57:09;;;;;;;14.98;3.65;;;;;;;10.74;74.70;98254.22;4977318;28;20038;-64
2021/11/01 03:59:44;;;;;;;8.10;3.53;;;;;;;10.74;74.87;98254.22;4993072;28;20490;-62
2021/11/01 04:02:21;;;;;;;12.23;3.72;;;;;;;10.76;74.99;98267.13;4977399;28;20061;-62
2021/11/01 04:04:55;;;;;;;12.07;3.63;;;;;;;10.75;74.76;98263.66;4976732;28;20034;-63
2021/11/01 04:07:28;;;;;;;14.07;3.38;;;;;;;10.73;74.73;98262.84;4976524;28;20050;-62
2021/11/01 04:10:02;;;;;;;11.27;3.65;;;;;;;10.71;74.75;98271.50;4977344;28;20109;-64
2021/11/01 04:12:37;;;;;;;17.58;2.90;;;;;;;10.71;74.63;98274.09;4994402;28;20041;-63
2021/11/01 04:15:11;;;;;;;9.60;2.85;;;;;;;10.72;74.74;98273.22;4976925;28;20122;-63
2021/11/01 04:17:53;;;;;;;9.43;3.10;;;;;;;10.71;74.40;98280.16;4977001;28;20042;-64
2021/11/01 04:23:19;;;;;;;9.35;2.47;;;;;;;10.68;74.52;98277.59;4994092;28;20101;-63
2021/11/01 04:25:54;;;;;;;10.25;3.45;;;;;;;10.68;74.52;98271.53;4976714;28;20035;-63
2021/11/01 04:28:31;;;;;;;10.43;3.10;;;;;;;10.64;74.46;98257.78;4992971;28;20042;-63
2021/11/01 04:31:09;;;;;;;13.10;4.18;;;;;;;10.64;74.49;98257.78;4977128;28;20034;-64
2021/11/01 04:33:44;;;;;;;10.88;3.30;;;;;;;10.61;74.53;98263.84;4976484;28;20122;-63
2021/11/01 04:36:18;;;;;;;9.57;2.88;;;;;;;10.63;74.82;98263.81;4993295;28;20189;-63
2021/11/01 04:41:55;;;;;;;9.00;3.00;;;;;;;10.60;74.56;98261.28;5009725;28;19920;-63
2021/11/01 04:52:52;;;;;;;11.52;2.60;;;;;;;10.59;74.57;98264.75;4992946;28;20478;-63
2021/11/01 04:53:19;;;;;;;11.35;3.05;;;;;;;10.59;74.27;98272.53;5012946;28;20128;-63
2021/11/01 04:55:56;;;;;;;11.65;3.13;;;;;;;10.57;74.59;98276.88;4980620;28;20435;-63
2021/11/01 04:58:33;;;;;;;12.43;3.05;;;;;;;10.57;74.53;98262.19;4980889;28;20050;-63
2021/11/01 05:01:06;;;;;;;13.77;3.78;;;;;;;10.56;74.55;98277.75;4996771;28;20100;-63
2021/11/01 05:03:47;;;;;;;8.07;2.58;;;;;;;10.54;74.40;98269.13;4980498;28;20050;-63
2021/11/01 05:06:22;;;;;;;9.32;2.95;;;;;;;10.51;74.25;98260.53;4980806;28;20258;-63
2021/11/01 05:09:17;;;;;;;9.60;3.15;;;;;;;10.51;74.50;98276.06;4980528;28;20034;-64
2021/11/01 05:14:42;;;;;;;13.20;3.38;;;;;;;10.54;74.33;98269.13;5012402;28;20105;-63
2021/11/01 05:17:23;;;;;;;8.88;2.40;;;;;;;10.54;74.70;98269.13;4980578;28;20053;-63
2021/11/01 05:23:04;;;;;;;11.93;2.65;;;;;;;10.54;74.42;98266.53;5012766;28;20034;-63
2021/11/01 05:25:51;;;;;;;11.98;3.67;;;;;;;10.55;74.51;98274.28;5012817;28;20034;-63
2021/11/01 05:31:04;;;;;;;;;;;;;;;10.55;74.10;98276.03;5012760;28;20084;-64
2021/11/01 05:34:01;;;;;;;8.10;2.97;;;;;;;10.50;74.07;98268.31;4980345;28;19914;-63
2021/11/01 05:36:28;;;;;;;14.25;3.05;;;;;;;10.49;74.51;98269.19;4979570;28;20101;-63
2021/11/01 05:38:57;;;;;;;12.57;4.03;;;;;;;10.48;74.21;98270.91;4979618;28;20042;-63
2021/11/01 05:41:30;;;;;;;11.50;2.83;;;;;;;10.46;74.21;98267.47;4979491;28;20030;-63
2021/11/01 05:44:04;;;;;;;8.52;2.88;;;;;;;10.43;74.34;98264.94;4979884;28;20042;-63
2021/11/01 05:46:45;;;;;;;10.68;3.38;;;;;;;10.44;74.27;98279.59;4996179;28;20034;-63
2021/11/01 05:49:24;;;;;;;14.48;4.03;;;;;;;10.44;74.20;98278.75;4995854;28;20449;-63
2021/11/01 05:51:55;;;;;;;8.57;3.10;;;;;;;10.43;74.10;98266.66;4995573;28;20069;-63
2021/11/01 05:54:31;;;;;;;11.50;3.20;;;;;;;10.40;73.87;98262.41;4995978;28;20038;-63
2021/11/01 06:00:13;;;;;;;14.10;3.53;;;;;;;10.36;74.20;98278.81;5010978;28;20061;-63
2021/11/01 06:02:58;;;;;;;9.63;3.08;;;;;;;10.36;74.10;98276.22;4979269;28;20512;-63
2021/11/01 06:13:30;;;;;;;10.38;3.33;;;;;;;10.35;74.09;98284.84;4996724;28;20042;-63
2021/11/01 06:16:03;;;;;;;12.93;3.40;;;;;;;10.34;73.93;98288.31;4979010;28;20555;-63
2021/11/01 06:18:38;;;;;;;6.03;2.47;;;;;;;10.37;74.12;98296.06;4979107;28;20038;-63
2021/11/01 06:21:22;;;;;;;10.32;2.88;;;;;;;10.36;74.08;98304.69;4995115;28;20046;-63
2021/11/01 06:24:01;;;;;;;12.52;2.83;;;;;;;10.38;74.25;98318.53;4979495;28;20045;-63
2021/11/01 06:26:35;;;;;;;12.80;4.45;;;;;;;10.37;73.88;98316.78;4979360;28;20038;-63
2021/11/01 06:29:09;;;;;;;16.23;3.72;;;;;;;10.38;74.29;98318.53;4978825;28;20093;-63
2021/11/01 06:31:58;;;;;;;9.75;3.17;;;;;;;10.38;74.05;98318.53;4994548;28;20042;-63
2021/11/01 07:14:30;;;;;;;13.57;3.50;;;;;;;10.33;74.08;98365.16;5010467;28;20485;-63
2021/11/01 07:19:58;;;;;;;15.00;4.00;;;;;;;10.36;74.27;98379.78;5010411;28;20092;-63
2021/11/01 08:39:41;;;;;;;12.15;3.55;;;;;;;10.52;73.53;98409.00;5008896;28;20043;-63
2021/11/01 08:50:38;;;;;;;9.35;2.50;;;;;;;10.56;73.90;98389.97;5009675;28;20152;-64
2021/11/01 09:07:28;;;;;;;6.47;2.60;;;;;;;10.61;73.56;98383.03;5009223;28;20038;-63
2021/11/01 09:26:36;;;;;;;10.18;2.80;;;;;;;10.65;72.91;98397.69;5008670;28;20045;-63
2021/11/01 09:29:43;;;;;;;6.57;2.53;;;;;;;10.64;73.01;98390.78;4976060;28;20073;-63
2021/11/01 09:43:25;;;;;;;6.30;2.65;;;;;;;10.77;72.88;98399.25;5012368;28;20405;-63
2021/11/01 09:46:09;;;;;;;12.35;3.10;;;;;;;10.82;72.79;98399.22;4995993;28;20030;-63
2021/11/01 09:48:39;;;;;;;9.55;2.42;;;;;;;10.84;72.78;98405.22;4980198;28;20053;-63
2021/11/01 09:51:19;;;;;;;8.18;2.95;;;;;;;10.90;72.72;98399.13;4995533;28;20517;-63
2021/11/01 09:53:56;;;;;;;6.13;2.20;;;;;;;10.89;72.96;98403.44;4979176;28;20038;-63
2021/11/01 09:59:39;;;;;;;7.00;2.97;;;;;;;10.96;72.70;98423.25;4936613;29;20051;-63
2021/11/01 10:02:08;;;;;;;8.65;2.75;;;;;;;10.98;72.79;98412.00;4920358;29;20406;-63
2021/11/01 10:04:41;;;;;;;6.65;2.45;;;;;;;11.02;73.14;98426.63;4967142;28;20078;-63
2021/11/01 10:07:23;;;;;;;9.05;2.88;;;;;;;11.01;72.41;98428.38;4979110;28;20034;-63
2021/11/01 10:10:08;;;;;;;8.85;2.88;;;;;;;11.03;72.63;98433.53;4978886;28;20121;-63
2021/11/01 10:12:36;;;;;;;7.32;2.78;;;;;;;11.01;72.98;98420.59;4979130;28;20038;-63
2021/11/01 10:18:07;;;;;;;9.35;3.00;;;;;;;11.07;72.61;98411.88;5012100;28;20429;-63
2021/11/01 10:20:55;;;;;;;13.77;2.78;;;;;;;11.11;72.74;98404.03;4995028;28;20034;-63
2021/11/01 10:23:33;;;;;;;7.63;2.20;;;;;;;11.14;72.53;98408.31;4994782;28;20034;-63
2021/11/01 10:26:15;;;;;;;10.70;2.40;;;;;;;11.15;72.23;98410.03;4979322;28;20133;-63
2021/11/01 10:28:49;;;;;;;8.15;2.53;;;;;;;11.20;72.51;98408.25;4979296;28;20042;-63
2021/11/01 10:31:25;;;;;;;8.48;2.88;;;;;;;11.22;72.32;98408.22;4979185;28;20057;-63
2021/11/01 10:34:12;;;;;;;8.85;2.42;;;;;;;11.23;72.65;98408.22;4995083;28;20066;-63
2021/11/01 10:36:48;;;;;;;8.98;2.63;;;;;;;11.25;72.54;98403.88;4979239;28;20038;-63
2021/11/01 10:39:26;;;;;;;7.88;2.00;;;;;;;11.27;72.55;98399.53;4978319;28;20050;-63
2021/11/01 10:42:16;;;;;;;14.27;3.15;;;;;;;11.31;72.25;98402.06;4994536;28;20125;-63
2021/11/01 10:45:03;;;;;;;6.00;2.55;;;;;;;11.33;72.49;98406.38;4978408;28;20474;-63
2021/11/01 11:12:42;;;;;;;10.07;2.55;;;;;;;11.31;71.87;98395.16;4995765;28;20031;-63
2021/11/01 11:15:18;;;;;;;4.93;2.42;;;;;;;11.33;72.12;98395.13;4977938;28;20042;-63
2021/11/01 11:49:33;;;;;;;10.75;2.58;;;;;;;11.25;71.51;98401.28;4974792;28;20110;-63
2021/11/01 11:52:22;;;;;;;9.95;2.55;;;;;;;11.25;71.51;98390.91;4961050;28;20030;-63
2021/11/01 11:55:04;;;;;;;4.80;2.53;;;;;;;11.23;71.38;98390.06;4961560;28;20089;-63
2021/11/01 11:57:35;;;;;;;8.93;3.30;;;;;;;11.24;71.54;98384.00;4960671;28;20050;-63
2021/11/01 12:00:05;;;;;;;7.97;2.55;;;;;;;11.22;71.26;98371.91;4960478;28;20042;-63
2021/11/01 12:02:40;;;;;;;7.13;2.30;;;;;;;11.23;71.28;98371.03;4966456;28;20172;-63
2021/11/01 12:05:25;;;;;;;8.00;2.55;;;;;;;11.23;71.39;98371.03;4977163;28;20038;-64
2021/11/01 12:18:59;;;;;;;8.07;2.88;;;;;;;11.37;71.18;98350.97;4994563;28;20129;-64
2021/11/01 12:21:26;;;;;;;7.18;2.53;;;;;;;11.39;71.43;98348.38;4994631;28;20048;-63
2021/11/01 12:23:54;;;;;;;10.30;3.60;;;;;;;11.42;71.29;98354.34;4993123;28;20046;-63
2021/11/01 12:26:22;;;;;;;10.07;3.33;;;;;;;11.45;71.31;98348.25;4993103;28;20034;-64
2021/11/01 12:28:53;;;;;;;8.80;3.05;;;;;;;11.47;71.28;98341.31;4976540;28;20039;-63
2021/11/01 12:31:19;;;;;;;6.25;2.88;;;;;;;11.48;71.20;98337.84;4976928;28;20038;-63
2021/11/01 12:34:02;;;;;;;17.98;3.22;;;;;;;11.48;71.43;98335.25;4977220;28;20034;-63
2021/11/01 12:36:40;;;;;;;7.22;2.60;;;;;;;11.49;71.28;98329.19;4994264;28;20481;-64
2021/11/01 12:39:31;;;;;;;5.03;2.22;;;;;;;11.50;71.00;98330.91;4977002;28;20042;-63
2021/11/01 12:58:29;;;;;;;7.22;2.60;;;;;;;11.54;71.21;98313.53;4993826;28;20478;-64
2021/11/01 13:00:55;;;;;;;9.45;2.28;;;;;;;11.54;70.67;98318.72;4992484;28;20049;-64
2021/11/01 13:03:24;;;;;;;5.00;2.00;;;;;;;11.54;70.64;98326.50;4993456;28;20050;-63
2021/11/01 13:05:57;;;;;;;5.03;2.47;;;;;;;11.53;70.60;98323.06;4976400;28;20038;-63
2021/11/01 13:08:34;;;;;;;9.30;2.50;;;;;;;11.54;70.77;98310.94;4976121;28;20031;-63
2021/11/01 13:13:57;;;;;;;7.85;2.00;;;;;;;11.52;70.58;98321.34;4997568;28;20045;-63
2021/11/01 13:19:16;;;;;;;6.10;2.08;;;;;;;11.52;70.24;98305.78;4997507;28;20030;-63
2021/11/01 13:24:16;;;;;;;5.60;1.77;;;;;;;11.53;70.31;98304.91;4996458;28;20035;-64
2021/11/01 13:36:52;;;;;;;7.88;2.38;;;;;;;11.53;70.73;98310.09;4997103;28;20050;-64
2021/11/01 13:39:26;;;;;;;9.30;2.67;;;;;;;11.53;70.12;98306.63;4979470;28;20493;-63
2021/11/01 13:41:51;;;;;;;5.55;2.05;;;;;;;11.54;70.37;98314.41;4979716;28;20070;-62
2021/11/01 13:44:26;;;;;;;11.60;1.92;;;;;;;11.53;70.26;98302.31;4996459;28;20125;-63
2021/11/01 13:46:56;;;;;;;6.68;2.88;;;;;;;11.52;70.45;98323.13;4963455;28;20038;-62
2021/11/01 13:49:22;;;;;;;6.57;2.50;;;;;;;11.53;70.30;98307.50;4963812;28;20113;-62
2021/11/01 13:51:50;;;;;;;7.32;2.20;;;;;;;11.53;70.18;98307.50;4996904;28;20494;-62
2021/11/01 13:56:52;;;;;;;5.30;2.30;;;;;;;11.55;70.49;98308.34;4996945;28;20042;-62
2021/11/01 14:29:12;;;;;;;7.28;2.22;;;;;;;11.49;69.99;98279.88;4996206;28;20409;-64
2021/11/01 14:32:09;;;;;;;8.90;2.00;;;;;;;11.52;70.40;98291.97;4978903;28;20125;-63
2021/11/01 14:34:59;;;;;;;9.15;2.00;;;;;;;11.50;70.21;98286.78;4995466;28;20050;-63
2021/11/01 15:22:55;;;;;;;7.63;3.03;;;;;;;11.41;70.03;98272.22;4994942;28;20089;-63
2021/11/01 16:18:57;;;;;;;4.05;2.10;;;;;;;11.18;69.72;98295.91;4994054;28;20045;-62
2021/11/01 16:25:55;;;;;;;4.63;2.67;;;;;;;11.15;70.09;98298.53;5131841;28;20031;-62
2021/11/01 16:28:21;;;;;;;3.47;2.17;;;;;;;11.15;69.90;98303.72;5131822;28;20046;-62
2021/11/01 16:30:57;;;;;;;7.95;2.63;;;;;;;11.14;69.59;98293.41;5113506;28;20032;-62
2021/11/01 16:33:30;;;;;;;6.50;2.53;;;;;;;11.12;69.69;98296.88;5113187;28;20028;-62
2021/11/01 16:35:58;;;;;;;8.80;2.87;;;;;;;11.13;69.86;98305.53;5096307;28;20092;-62
2021/11/01 16:38:24;;;;;;;8.00;2.97;;;;;;;11.12;69.23;98309.00;5096224;28;20064;-61
2021/11/01 16:40:51;;;;;;;7.38;2.70;;;;;;;11.12;69.76;98307.25;5096214;28;20617;-62
2021/11/01 16:43:19;;;;;;;9.50;3.47;;;;;;;11.13;69.79;98313.31;5096140;28;20035;-62
2021/11/01 16:45:47;;;;;;;9.73;2.97;;;;;;;11.12;69.91;98315.00;5131306;28;20077;-62
2021/11/01 16:48:13;;;;;;;9.32;3.80;;;;;;;11.14;69.79;98301.19;5096084;28;20511;-62
2021/11/01 16:50:39;;;;;;;11.63;3.92;;;;;;;11.13;69.92;98315.88;5112990;28;20127;-62
2021/11/01 16:53:06;;;;;;;5.55;2.67;;;;;;;11.13;69.65;98315.88;5113011;28;20085;-62
2021/11/01 16:55:38;;;;;;;9.23;3.30;;;;;;;11.12;69.75;98311.59;5131341;28;20031;-62
2021/11/01 16:58:22;;;;;;;7.53;3.08;;;;;;;11.13;69.85;98313.31;5131553;28;20036;-62
2021/11/01 17:00:56;;;;;;;;;;;;;;;11.10;69.95;98321.97;5131111;28;20424;-62
2021/11/01 17:06:44;;;;;;;7.53;2.92;;;;;;;11.10;69.97;98326.28;5131599;28;20042;-63
2021/11/01 17:24:55;;;;;;;5.35;3.22;;;;;;;11.07;69.76;98322.00;5112952;28;20046;-62
2021/11/01 17:28:17;;;;;;;6.18;2.22;;;;;;;11.06;69.88;98327.22;5112635;28;20031;-62
2021/11/01 17:30:39;;;;;;;5.47;2.55;;;;;;;11.03;69.98;98322.06;5119436;28;20101;-62
2021/11/01 17:36:44;;;;;;;7.78;2.78;;;;;;;10.99;69.59;98342.00;5116820;28;20031;-62
2021/11/01 18:45:40;;;;;;;5.80;2.15;;;;;;;10.75;70.03;98353.50;5114355;28;20048;-64
2021/11/01 18:51:05;;;;;;;4.85;2.63;;;;;;;10.75;69.97;98351.75;5115343;28;20031;-64
2021/11/01 18:53:49;;;;;;;7.25;2.25;;;;;;;10.75;69.70;98358.69;5115299;28;20088;-63
2021/11/01 18:56:14;;;;;;;4.40;2.38;;;;;;;10.74;69.92;98368.22;5115754;28;20038;-63
2021/11/01 18:58:42;;;;;;;5.32;2.00;;;;;;;10.73;69.67;98371.69;5115232;28;20479;-64
2021/11/01 19:01:11;;;;;;;4.25;2.20;;;;;;;10.73;69.67;98370.81;5465570;22;20030;-61
2021/11/01 19:03:47;;;;;;;6.10;1.80;;;;;;;10.72;69.82;98369.09;5072641;28;20033;-62
2021/11/01 19:06:34;;;;;;;7.03;2.00;;;;;;;10.71;69.76;98369.97;5073815;28;20033;-62
2021/11/01 20:04:52;;;;;;;5.72;2.25;;;;;;;10.73;69.77;98381.16;5131050;28;20192;-62
2021/11/01 20:12:51;;;;;;;4.47;1.90;;;;;;;10.71;69.98;98378.59;5130632;28;20051;-62
2021/11/01 21:27:16;;;;;;;9.32;3.35;;;;;;;10.57;70.54;98383.94;5115973;28;20466;-61
2021/11/01 21:29:48;;;;;;;4.82;3.17;;;;;;;10.57;70.72;98381.34;5114323;28;20066;-62
2021/11/01 21:32:17;;;;;;;7.82;3.30;;;;;;;10.56;70.75;98386.53;5097428;28;20119;-62
2021/11/01 21:34:58;;;;;;;5.88;3.08;;;;;;;10.56;70.74;98384.81;5115670;28;20400;-62
2021/11/01 21:37:32;;;;;;;7.00;2.70;;;;;;;10.56;70.77;98381.38;5114373;28;20053;-62
2021/11/01 21:40:01;;;;;;;;;;;;;;;10.53;70.48;98378.81;5116208;28;20124;-62
2021/11/01 21:42:36;;;;;;;8.80;3.10;;;;;;;10.50;70.97;98382.28;5114697;28;19973;-62
2021/11/01 21:46:37;;;;;;;10.93;3.42;;;;;;;10.47;70.73;98377.13;5132221;27;20135;-62
2021/11/01 21:49:08;;;;;;;14.45;3.80;;;;;;;10.47;70.96;98375.38;5113773;28;20043;-63
2021/11/01 21:51:45;;;;;;;8.23;3.08;;;;;;;10.45;71.08;98371.97;5113448;28;20123;-62
2021/11/01 21:54:32;;;;;;;9.35;2.72;;;;;;;10.45;70.90;98381.47;5096592;28;20054;-62
2021/11/01 21:57:35;;;;;;;10.98;3.22;;;;;;;10.44;70.91;98370.22;5113502;28;20039;-62
2021/11/01 22:00:26;;;;;;;6.10;3.22;;;;;;;10.42;70.75;98368.53;5112753;28;20043;-63
2021/11/01 22:17:41;;;;;;;8.30;2.83;;;;;;;10.33;70.74;98367.75;5131497;28;20494;-62
2021/11/01 22:20:20;;;;;;;11.23;2.90;;;;;;;10.33;70.75;98369.47;5095674;28;20474;-62
2021/11/01 22:22:56;;;;;;;9.80;3.17;;;;;;;10.34;70.64;98369.47;5131002;28;20023;-62
2021/11/01 22:25:43;;;;;;;5.25;2.80;;;;;;;10.35;70.81;98365.13;5096388;28;20035;-63
2021/11/01 22:56:13;;;;;;;4.43;2.88;;;;;;;10.21;70.64;98357.47;5126963;28;20063;-63
2021/11/01 22:58:56;;;;;;;10.30;2.90;;;;;;;10.18;70.94;98352.38;5097694;28;20044;-64
2021/11/01 23:01:37;;;;;;;3.35;2.45;;;;;;;10.17;70.93;98350.66;5117122;28;20475;-63
2021/11/01 23:04:33;;;;;;;5.47;2.38;;;;;;;10.15;70.99;98353.22;5116676;28;20066;-63
2021/11/01 23:31:24;;;;;;;8.48;2.92;;;;;;;10.13;71.11;98343.78;5081849;28;20185;-63
2021/11/01 23:32:42;;;;;;;3.58;2.10;;;;;;;10.03;71.05;98327.47;5116243;28;20035;-63
2021/11/01 23:35:16;;;;;;;4.85;2.97;;;;;;;10.02;70.61;98330.91;5098068;28;20040;-64
2021/11/01 23:37:53;;;;;;;6.35;3.03;;;;;;;10.01;71.16;98327.50;5116045;28;20454;-63
2021/11/01 23:40:30;;;;;;;8.40;2.63;;;;;;;10.00;70.95;98333.53;5116276;28;20039;-63
2021/11/01 23:43:01;;;;;;;4.70;2.13;;;;;;;10.01;71.01;98329.19;5097754;28;20066;-64
2021/11/01 23:45:38;;;;;;;6.80;2.65;;;;;;;10.00;71.17;98332.66;5080618;28;20085;-63
2021/11/01 23:48:17;;;;;;;3.30;2.10;;;;;;;9.98;71.20;98334.41;5115920;28;20031;-63
2021/11/01 23:50:49;;;;;;;5.90;2.30;;;;;;;9.98;71.14;98335.28;5081191;28;20077;-63
2021/11/01 23:53:40;;;;;;;6.25;2.53;;;;;;;9.99;71.02;98330.94;5080530;28;20517;-63
2021/11/01 23:56:18;;;;;;;2.83;2.10;;;;;;;9.98;71.23;98330.09;5115274;28;20576;-63
2021/11/01 23:58:51;;;;;;;8.93;2.85;;;;;;;9.99;71.31;98326.63;5097246;28;20092;-64
